sensor_id;sensor_type;location;lat;lon;timestamp;temperature;humidity
74513;DHT22;62992;52.052;8.550;2023-11-21T00:01:14;7.70;99.90
74513;DHT22;62992;52.052;8.550;2023-11-21T00:03:58;7.70;99.90
74513;DHT22;62992;52.052;8.550;2023-11-21T00:06:42;7.70;99.90
74513;DHT22;62992;52.052;8.550;2023-11-21T00:09:26;7.70;99.90
74513;DHT22;62992;52.052;8.550;2023-11-21T00:12:11;7.70;99.90
74513;DHT22;62992;52.052;8.550;2023-11-21T00:14:55;7.80;99.90
74513;DHT22;62992;52.052;8.550;2023-11-21T00:17:40;7.80;99.90
74513;DHT22;62992;52.052;8.550;2023-11-21T00:20:24;7.80;99.90
74513;DHT22;62992;52.052;8.550;2023-11-21T00:23:08;7.80;99.90
74513;DHT22;62992;52.052;8.550;2023-11-21T00:25:53;7.80;99.90
74513;DHT22;62992;52.052;8.550;2023-11-21T00:28:37;7.80;99.90
74513;DHT22;62992;52.052;8.550;2023-11-21T00:31:21;7.80;99.90
74513;DHT22;62992;52.052;8.550;2023-11-21T00:34:06;7.80;99.90
74513;DHT22;62992;52.052;8.550;2023-11-21T00:36:50;7.80;99.90
74513;DHT22;62992;52.052;8.550;2023-11-21T00:39:34;7.80;99.90
74513;DHT22;62992;52.052;8.550;2023-11-21T00:42:19;7.90;99.90
74513;DHT22;62992;52.052;8.550;2023-11-21T00:45:03;7.80;99.90
74513;DHT22;62992;52.052;8.550;2023-11-21T00:47:47;7.90;99.90
74513;DHT22;62992;52.052;8.550;2023-11-21T00:50:32;7.90;99.90
74513;DHT22;62992;52.052;8.550;2023-11-21T00:53:16;7.90;99.90
74513;DHT22;62992;52.052;8.550;2023-11-21T00:56:00;7.90;99.90
74513;DHT22;62992;52.052;8.550;2023-11-21T00:58:45;7.90;99.90
74513;DHT22;62992;52.052;8.550;2023-11-21T01:01:33;7.90;99.90
74513;DHT22;62992;52.052;8.550;2023-11-21T01:04:17;7.90;99.90
74513;DHT22;62992;52.052;8.550;2023-11-21T01:07:02;7.90;99.90
74513;DHT22;62992;52.052;8.550;2023-11-21T01:09:46;7.90;99.90
74513;DHT22;62992;52.052;8.550;2023-11-21T01:12:30;7.90;99.90
74513;DHT22;62992;52.052;8.550;2023-11-21T01:15:15;7.90;99.90
74513;DHT22;62992;52.052;8.550;2023-11-21T01:17:59;7.90;99.90
74513;DHT22;62992;52.052;8.550;2023-11-21T01:20:43;7.90;99.90
74513;DHT22;62992;52.052;8.550;2023-11-21T01:23:28;7.90;99.90
74513;DHT22;62992;52.052;8.550;2023-11-21T01:26:12;7.90;99.90
74513;DHT22;62992;52.052;8.550;2023-11-21T01:28:56;7.90;99.90
74513;DHT22;62992;52.052;8.550;2023-11-21T01:31:40;7.90;99.90
74513;DHT22;62992;52.052;8.550;2023-11-21T01:34:25;7.90;99.90
74513;DHT22;62992;52.052;8.550;2023-11-21T01:37:09;7.90;99.90
74513;DHT22;62992;52.052;8.550;2023-11-21T01:39:55;8.00;99.90
74513;DHT22;62992;52.052;8.550;2023-11-21T01:42:40;8.00;99.90
74513;DHT22;62992;52.052;8.550;2023-11-21T01:45:24;8.00;99.90
74513;DHT22;62992;52.052;8.550;2023-11-21T01:48:08;7.90;99.90
74513;DHT22;62992;52.052;8.550;2023-11-21T01:50:52;8.00;99.90
74513;DHT22;62992;52.052;8.550;2023-11-21T01:53:37;7.90;99.90
74513;DHT22;62992;52.052;8.550;2023-11-21T01:56:21;8.00;99.90
74513;DHT22;62992;52.052;8.550;2023-11-21T01:59:05;8.00;99.90
74513;DHT22;62992;52.052;8.550;2023-11-21T02:01:50;7.90;99.90
74513;DHT22;62992;52.052;8.550;2023-11-21T02:04:35;7.90;99.90
74513;DHT22;62992;52.052;8.550;2023-11-21T02:07:22;8.00;99.90
74513;DHT22;62992;52.052;8.550;2023-11-21T02:10:07;8.00;99.90
74513;DHT22;62992;52.052;8.550;2023-11-21T02:12:51;8.00;99.90
74513;DHT22;62992;52.052;8.550;2023-11-21T02:15:35;8.00;99.90
74513;DHT22;62992;52.052;8.550;2023-11-21T02:18:19;8.00;99.90
74513;DHT22;62992;52.052;8.550;2023-11-21T02:21:04;8.00;99.90
74513;DHT22;62992;52.052;8.550;2023-11-21T02:23:48;8.00;99.90
74513;DHT22;62992;52.052;8.550;2023-11-21T02:26:32;8.00;99.90
74513;DHT22;62992;52.052;8.550;2023-11-21T02:29:17;8.00;99.90
74513;DHT22;62992;52.052;8.550;2023-11-21T02:32:02;8.00;99.90
74513;DHT22;62992;52.052;8.550;2023-11-21T02:34:47;8.00;99.90
74513;DHT22;62992;52.052;8.550;2023-11-21T02:37:32;8.00;99.90
74513;DHT22;62992;52.052;8.550;2023-11-21T02:40:16;8.00;99.90
74513;DHT22;62992;52.052;8.550;2023-11-21T02:43:04;8.00;99.90
74513;DHT22;62992;52.052;8.550;2023-11-21T02:45:49;8.00;99.90
74513;DHT22;62992;52.052;8.550;2023-11-21T02:48:33;8.00;99.90
74513;DHT22;62992;52.052;8.550;2023-11-21T02:51:18;8.00;99.90
74513;DHT22;62992;52.052;8.550;2023-11-21T02:54:02;8.00;99.90
74513;DHT22;62992;52.052;8.550;2023-11-21T02:56:50;8.00;99.90
74513;DHT22;62992;52.052;8.550;2023-11-21T02:59:34;8.00;99.90
74513;DHT22;62992;52.052;8.550;2023-11-21T03:02:18;8.00;99.90
74513;DHT22;62992;52.052;8.550;2023-11-21T03:05:02;8.00;99.90
74513;DHT22;62992;52.052;8.550;2023-11-21T03:07:49;8.00;99.90
74513;DHT22;62992;52.052;8.550;2023-11-21T03:10:33;8.00;99.90
74513;DHT22;62992;52.052;8.550;2023-11-21T03:13:17;8.00;99.90
74513;DHT22;62992;52.052;8.550;2023-11-21T03:16:01;8.00;99.90
74513;DHT22;62992;52.052;8.550;2023-11-21T03:18:45;8.00;99.90
74513;DHT22;62992;52.052;8.550;2023-11-21T03:21:30;8.00;99.90
74513;DHT22;62992;52.052;8.550;2023-11-21T03:24:14;8.00;99.90
74513;DHT22;62992;52.052;8.550;2023-11-21T03:27:01;8.00;99.90
74513;DHT22;62992;52.052;8.550;2023-11-21T03:29:45;8.00;99.90
74513;DHT22;62992;52.052;8.550;2023-11-21T03:32:30;8.00;99.90
74513;DHT22;62992;52.052;8.550;2023-11-21T03:35:17;8.00;99.90
74513;DHT22;62992;52.052;8.550;2023-11-21T03:38:02;8.00;99.90
74513;DHT22;62992;52.052;8.550;2023-11-21T03:40:46;8.00;99.90
74513;DHT22;62992;52.052;8.550;2023-11-21T03:43:31;8.00;99.90
74513;DHT22;62992;52.052;8.550;2023-11-21T03:46:15;8.10;99.90
74513;DHT22;62992;52.052;8.550;2023-11-21T03:48:59;8.00;99.90
74513;DHT22;62992;52.052;8.550;2023-11-21T03:51:43;8.00;99.90
74513;DHT22;62992;52.052;8.550;2023-11-21T03:54:27;8.00;99.90
74513;DHT22;62992;52.052;8.550;2023-11-21T03:57:12;8.00;99.90
74513;DHT22;62992;52.052;8.550;2023-11-21T03:59:56;8.00;99.90
74513;DHT22;62992;52.052;8.550;2023-11-21T04:02:40;8.00;99.90
74513;DHT22;62992;52.052;8.550;2023-11-21T04:05:24;8.00;99.90
74513;DHT22;62992;52.052;8.550;2023-11-21T04:08:08;8.00;99.90
74513;DHT22;62992;52.052;8.550;2023-11-21T04:10:53;8.00;99.90
74513;DHT22;62992;52.052;8.550;2023-11-21T04:13:40;8.00;99.90
74513;DHT22;62992;52.052;8.550;2023-11-21T04:16:24;8.00;99.90
74513;DHT22;62992;52.052;8.550;2023-11-21T04:19:08;8.00;99.90
74513;DHT22;62992;52.052;8.550;2023-11-21T04:21:58;8.00;99.90
74513;DHT22;62992;52.052;8.550;2023-11-21T04:24:42;7.90;99.90
74513;DHT22;62992;52.052;8.550;2023-11-21T04:27:26;8.00;99.90
74513;DHT22;62992;52.052;8.550;2023-11-21T04:30:11;7.90;99.90
74513;DHT22;62992;52.052;8.550;2023-11-21T04:32:55;7.90;99.90
74513;DHT22;62992;52.052;8.550;2023-11-21T04:35:39;7.90;99.90
74513;DHT22;62992;52.052;8.550;2023-11-21T04:38:24;7.90;99.90
74513;DHT22;62992;52.052;8.550;2023-11-21T04:41:08;7.90;99.90
74513;DHT22;62992;52.052;8.550;2023-11-21T04:43:52;7.90;99.90
74513;DHT22;62992;52.052;8.550;2023-11-21T04:46:36;7.90;99.90
74513;DHT22;62992;52.052;8.550;2023-11-21T04:49:20;7.90;99.90
74513;DHT22;62992;52.052;8.550;2023-11-21T04:52:05;7.90;99.90
74513;DHT22;62992;52.052;8.550;2023-11-21T04:54:49;7.90;99.90
74513;DHT22;62992;52.052;8.550;2023-11-21T04:57:33;7.90;99.90
74513;DHT22;62992;52.052;8.550;2023-11-21T05:00:17;7.90;99.90
74513;DHT22;62992;52.052;8.550;2023-11-21T05:03:02;7.90;99.90
74513;DHT22;62992;52.052;8.550;2023-11-21T05:05:47;7.90;99.90
74513;DHT22;62992;52.052;8.550;2023-11-21T05:08:31;7.90;99.90
74513;DHT22;62992;52.052;8.550;2023-11-21T05:11:25;7.90;99.90
74513;DHT22;62992;52.052;8.550;2023-11-21T05:14:09;7.90;99.90
74513;DHT22;62992;52.052;8.550;2023-11-21T05:16:53;7.90;99.90
74513;DHT22;62992;52.052;8.550;2023-11-21T05:19:37;7.90;99.90
74513;DHT22;62992;52.052;8.550;2023-11-21T05:22:22;7.90;99.90
74513;DHT22;62992;52.052;8.550;2023-11-21T05:25:06;7.80;99.90
74513;DHT22;62992;52.052;8.550;2023-11-21T05:27:54;7.90;99.90
74513;DHT22;62992;52.052;8.550;2023-11-21T05:30:39;7.90;99.90
74513;DHT22;62992;52.052;8.550;2023-11-21T05:33:23;7.90;99.90
74513;DHT22;62992;52.052;8.550;2023-11-21T05:36:07;7.90;99.90
74513;DHT22;62992;52.052;8.550;2023-11-21T05:38:52;7.90;99.90
74513;DHT22;62992;52.052;8.550;2023-11-21T05:41:36;7.90;99.90
74513;DHT22;62992;52.052;8.550;2023-11-21T05:44:20;7.90;99.90
74513;DHT22;62992;52.052;8.550;2023-11-21T05:47:04;7.90;99.90
74513;DHT22;62992;52.052;8.550;2023-11-21T05:49:50;7.90;99.90
74513;DHT22;62992;52.052;8.550;2023-11-21T05:52:36;7.90;99.90
74513;DHT22;62992;52.052;8.550;2023-11-21T05:55:22;7.90;99.90
74513;DHT22;62992;52.052;8.550;2023-11-21T05:58:09;7.90;99.90
74513;DHT22;62992;52.052;8.550;2023-11-21T06:00:53;7.90;99.90
74513;DHT22;62992;52.052;8.550;2023-11-21T06:03:37;7.90;99.90
74513;DHT22;62992;52.052;8.550;2023-11-21T06:06:21;7.90;99.90
74513;DHT22;62992;52.052;8.550;2023-11-21T06:09:09;7.90;99.90
74513;DHT22;62992;52.052;8.550;2023-11-21T06:11:53;7.90;99.90
74513;DHT22;62992;52.052;8.550;2023-11-21T06:14:38;7.90;99.90
74513;DHT22;62992;52.052;8.550;2023-11-21T06:17:22;7.90;99.90
74513;DHT22;62992;52.052;8.550;2023-11-21T06:20:09;7.90;99.90
74513;DHT22;62992;52.052;8.550;2023-11-21T06:22:53;7.90;99.90
74513;DHT22;62992;52.052;8.550;2023-11-21T06:25:37;7.90;99.90
74513;DHT22;62992;52.052;8.550;2023-11-21T06:28:22;7.90;99.90
74513;DHT22;62992;52.052;8.550;2023-11-21T06:31:06;7.90;99.90
74513;DHT22;62992;52.052;8.550;2023-11-21T06:33:50;7.90;99.90
74513;DHT22;62992;52.052;8.550;2023-11-21T06:36:35;7.90;99.90
74513;DHT22;62992;52.052;8.550;2023-11-21T06:39:20;7.90;99.90
74513;DHT22;62992;52.052;8.550;2023-11-21T06:42:06;7.90;99.90
74513;DHT22;62992;52.052;8.550;2023-11-21T06:44:50;7.90;99.90
74513;DHT22;62992;52.052;8.550;2023-11-21T06:47:41;7.90;99.90
74513;DHT22;62992;52.052;8.550;2023-11-21T06:50:25;7.90;99.90
74513;DHT22;62992;52.052;8.550;2023-11-21T06:53:09;7.90;99.90
74513;DHT22;62992;52.052;8.550;2023-11-21T06:55:53;7.90;99.90
74513;DHT22;62992;52.052;8.550;2023-11-21T06:58:37;7.90;99.90
74513;DHT22;62992;52.052;8.550;2023-11-21T07:01:22;8.00;99.90
74513;DHT22;62992;52.052;8.550;2023-11-21T07:04:06;8.00;99.90
74513;DHT22;62992;52.052;8.550;2023-11-21T07:06:51;7.90;99.90
74513;DHT22;62992;52.052;8.550;2023-11-21T07:09:35;7.90;99.90
74513;DHT22;62992;52.052;8.550;2023-11-21T07:12:20;8.00;99.90
74513;DHT22;62992;52.052;8.550;2023-11-21T07:15:07;8.00;99.90
74513;DHT22;62992;52.052;8.550;2023-11-21T07:17:53;8.00;99.90
74513;DHT22;62992;52.052;8.550;2023-11-21T07:20:37;8.00;99.90
74513;DHT22;62992;52.052;8.550;2023-11-21T07:23:22;8.00;99.90
74513;DHT22;62992;52.052;8.550;2023-11-21T07:26:06;8.00;99.90
74513;DHT22;62992;52.052;8.550;2023-11-21T07:28:53;8.00;99.90
74513;DHT22;62992;52.052;8.550;2023-11-21T07:31:37;8.00;99.90
74513;DHT22;62992;52.052;8.550;2023-11-21T07:34:22;8.00;99.90
74513;DHT22;62992;52.052;8.550;2023-11-21T07:37:06;8.00;99.90
74513;DHT22;62992;52.052;8.550;2023-11-21T07:39:50;8.00;99.90
74513;DHT22;62992;52.052;8.550;2023-11-21T07:42:39;8.00;99.90
74513;DHT22;62992;52.052;8.550;2023-11-21T07:45:23;8.00;99.90
74513;DHT22;62992;52.052;8.550;2023-11-21T07:48:07;8.00;99.90
74513;DHT22;62992;52.052;8.550;2023-11-21T07:50:51;8.00;99.90
74513;DHT22;62992;52.052;8.550;2023-11-21T07:53:36;8.00;99.90
74513;DHT22;62992;52.052;8.550;2023-11-21T07:56:20;8.00;99.90
74513;DHT22;62992;52.052;8.550;2023-11-21T07:59:04;8.00;99.90
74513;DHT22;62992;52.052;8.550;2023-11-21T08:01:48;8.00;99.90
74513;DHT22;62992;52.052;8.550;2023-11-21T08:04:33;8.00;99.90
74513;DHT22;62992;52.052;8.550;2023-11-21T08:07:19;8.10;99.90
74513;DHT22;62992;52.052;8.550;2023-11-21T08:10:03;8.10;99.90
74513;DHT22;62992;52.052;8.550;2023-11-21T08:12:48;8.10;99.90
74513;DHT22;62992;52.052;8.550;2023-11-21T08:15:34;8.10;99.90
74513;DHT22;62992;52.052;8.550;2023-11-21T08:18:20;8.10;99.90
74513;DHT22;62992;52.052;8.550;2023-11-21T08:21:05;8.20;99.90
74513;DHT22;62992;52.052;8.550;2023-11-21T08:23:49;8.20;99.90
74513;DHT22;62992;52.052;8.550;2023-11-21T08:26:37;8.20;99.90
74513;DHT22;62992;52.052;8.550;2023-11-21T08:29:21;8.20;99.90
74513;DHT22;62992;52.052;8.550;2023-11-21T08:32:07;8.20;99.90
74513;DHT22;62992;52.052;8.550;2023-11-21T08:34:51;8.20;99.90
74513;DHT22;62992;52.052;8.550;2023-11-21T08:37:35;8.20;99.90
74513;DHT22;62992;52.052;8.550;2023-11-21T08:40:22;8.20;99.90
74513;DHT22;62992;52.052;8.550;2023-11-21T08:43:07;8.20;99.90
74513;DHT22;62992;52.052;8.550;2023-11-21T08:45:52;8.20;99.90
74513;DHT22;62992;52.052;8.550;2023-11-21T08:48:36;8.20;99.90
74513;DHT22;62992;52.052;8.550;2023-11-21T08:51:20;8.20;99.90
74513;DHT22;62992;52.052;8.550;2023-11-21T08:54:04;8.20;99.90
74513;DHT22;62992;52.052;8.550;2023-11-21T08:56:55;8.20;99.90
74513;DHT22;62992;52.052;8.550;2023-11-21T08:59:39;8.20;99.90
74513;DHT22;62992;52.052;8.550;2023-11-21T09:02:23;8.20;99.90
74513;DHT22;62992;52.052;8.550;2023-11-21T09:05:13;8.30;99.90
74513;DHT22;62992;52.052;8.550;2023-11-21T09:07:57;8.30;99.90
74513;DHT22;62992;52.052;8.550;2023-11-21T09:10:43;8.20;99.90
74513;DHT22;62992;52.052;8.550;2023-11-21T09:13:30;8.20;99.90
74513;DHT22;62992;52.052;8.550;2023-11-21T09:16:15;8.20;99.90
74513;DHT22;62992;52.052;8.550;2023-11-21T09:19:00;8.20;99.90
74513;DHT22;62992;52.052;8.550;2023-11-21T09:21:44;8.20;99.90
74513;DHT22;62992;52.052;8.550;2023-11-21T09:24:28;8.10;99.90
74513;DHT22;62992;52.052;8.550;2023-11-21T09:27:12;8.20;99.90
74513;DHT22;62992;52.052;8.550;2023-11-21T09:29:56;8.10;99.90
74513;DHT22;62992;52.052;8.550;2023-11-21T09:32:41;8.10;99.90
74513;DHT22;62992;52.052;8.550;2023-11-21T09:35:28;8.10;99.90
74513;DHT22;62992;52.052;8.550;2023-11-21T09:38:13;8.10;99.90
74513;DHT22;62992;52.052;8.550;2023-11-21T09:40:57;8.10;99.90
74513;DHT22;62992;52.052;8.550;2023-11-21T09:43:42;8.10;99.90
74513;DHT22;62992;52.052;8.550;2023-11-21T09:46:26;8.10;99.90
74513;DHT22;62992;52.052;8.550;2023-11-21T09:49:11;8.10;99.90
74513;DHT22;62992;52.052;8.550;2023-11-21T09:51:57;8.10;99.90
74513;DHT22;62992;52.052;8.550;2023-11-21T09:54:42;8.00;99.90
74513;DHT22;62992;52.052;8.550;2023-11-21T09:57:26;8.00;99.90
74513;DHT22;62992;52.052;8.550;2023-11-21T10:00:10;8.00;99.90
74513;DHT22;62992;52.052;8.550;2023-11-21T10:02:55;8.00;99.90
74513;DHT22;62992;52.052;8.550;2023-11-21T10:05:42;7.90;99.90
74513;DHT22;62992;52.052;8.550;2023-11-21T10:08:27;7.90;99.90
74513;DHT22;62992;52.052;8.550;2023-11-21T10:11:11;7.90;99.90
74513;DHT22;62992;52.052;8.550;2023-11-21T10:13:56;7.90;99.90
74513;DHT22;62992;52.052;8.550;2023-11-21T10:16:41;7.90;99.90
74513;DHT22;62992;52.052;8.550;2023-11-21T10:19:27;7.90;99.90
74513;DHT22;62992;52.052;8.550;2023-11-21T10:22:14;7.90;99.90
74513;DHT22;62992;52.052;8.550;2023-11-21T10:24:59;7.90;99.90
74513;DHT22;62992;52.052;8.550;2023-11-21T10:27:43;7.90;99.90
74513;DHT22;62992;52.052;8.550;2023-11-21T10:33:17;7.70;99.90
74513;DHT22;62992;52.052;8.550;2023-11-21T10:36:10;7.70;99.90
74513;DHT22;62992;52.052;8.550;2023-11-21T10:38:54;7.70;99.90
74513;DHT22;62992;52.052;8.550;2023-11-21T10:41:39;7.70;99.90
74513;DHT22;62992;52.052;8.550;2023-11-21T10:44:23;7.60;99.90
74513;DHT22;62992;52.052;8.550;2023-11-21T10:47:08;7.60;99.90
74513;DHT22;62992;52.052;8.550;2023-11-21T10:49:52;7.50;99.90
74513;DHT22;62992;52.052;8.550;2023-11-21T10:52:40;7.60;99.90
74513;DHT22;62992;52.052;8.550;2023-11-21T10:55:26;7.60;99.90
74513;DHT22;62992;52.052;8.550;2023-11-21T10:58:10;7.60;99.90
74513;DHT22;62992;52.052;8.550;2023-11-21T11:00:57;7.50;99.90
74513;DHT22;62992;52.052;8.550;2023-11-21T11:03:42;7.60;99.90
74513;DHT22;62992;52.052;8.550;2023-11-21T11:06:27;7.60;99.90
74513;DHT22;62992;52.052;8.550;2023-11-21T11:09:13;7.50;99.90
74513;DHT22;62992;52.052;8.550;2023-11-21T11:11:57;7.50;99.90
74513;DHT22;62992;52.052;8.550;2023-11-21T11:14:41;7.50;99.90
74513;DHT22;62992;52.052;8.550;2023-11-21T11:17:27;7.40;99.90
74513;DHT22;62992;52.052;8.550;2023-11-21T11:20:12;7.50;99.90
74513;DHT22;62992;52.052;8.550;2023-11-21T11:29:18;7.50;99.90
74513;DHT22;62992;52.052;8.550;2023-11-21T11:32:21;7.50;99.90
74513;DHT22;62992;52.052;8.550;2023-11-21T11:35:10;7.50;99.90
74513;DHT22;62992;52.052;8.550;2023-11-21T11:37:55;7.50;99.90
74513;DHT22;62992;52.052;8.550;2023-11-21T11:40:48;7.30;99.90
74513;DHT22;62992;52.052;8.550;2023-11-21T11:43:36;7.30;99.90
74513;DHT22;62992;52.052;8.550;2023-11-21T11:46:42;7.30;99.90
74513;DHT22;62992;52.052;8.550;2023-11-21T11:49:29;7.40;99.90
74513;DHT22;62992;52.052;8.550;2023-11-21T11:55:17;7.30;99.90
74513;DHT22;62992;52.052;8.550;2023-11-21T11:58:08;7.30;99.90
74513;DHT22;62992;52.052;8.550;2023-11-21T12:00:52;7.30;99.90
74513;DHT22;62992;52.052;8.550;2023-11-21T12:03:37;7.30;99.90
74513;DHT22;62992;52.052;8.550;2023-11-21T12:06:30;7.30;99.90
74513;DHT22;62992;52.052;8.550;2023-11-21T12:09:20;7.20;99.90
74513;DHT22;62992;52.052;8.550;2023-11-21T12:12:05;7.20;99.90
74513;DHT22;62992;52.052;8.550;2023-11-21T12:14:49;7.10;99.90
74513;DHT22;62992;52.052;8.550;2023-11-21T12:17:34;7.00;99.90
74513;DHT22;62992;52.052;8.550;2023-11-21T12:20:19;7.00;99.90
74513;DHT22;62992;52.052;8.550;2023-11-21T12:23:03;7.00;99.90
74513;DHT22;62992;52.052;8.550;2023-11-21T12:25:47;7.00;99.90
74513;DHT22;62992;52.052;8.550;2023-11-21T12:28:31;7.00;99.90
74513;DHT22;62992;52.052;8.550;2023-11-21T12:31:16;7.00;99.90
74513;DHT22;62992;52.052;8.550;2023-11-21T12:34:00;7.10;99.90
74513;DHT22;62992;52.052;8.550;2023-11-21T12:36:44;7.10;99.90
74513;DHT22;62992;52.052;8.550;2023-11-21T12:39:29;7.00;99.90
74513;DHT22;62992;52.052;8.550;2023-11-21T12:42:13;7.10;99.90
74513;DHT22;62992;52.052;8.550;2023-11-21T12:48:01;7.20;99.90
74513;DHT22;62992;52.052;8.550;2023-11-21T12:50:47;7.20;99.90
74513;DHT22;62992;52.052;8.550;2023-11-21T12:53:32;7.10;99.90
74513;DHT22;62992;52.052;8.550;2023-11-21T12:56:22;7.10;99.90
74513;DHT22;62992;52.052;8.550;2023-11-21T12:59:09;7.20;99.90
74513;DHT22;62992;52.052;8.550;2023-11-21T13:01:57;7.20;99.90
74513;DHT22;62992;52.052;8.550;2023-11-21T13:04:43;7.20;99.90
74513;DHT22;62992;52.052;8.550;2023-11-21T13:07:41;7.30;99.90
74513;DHT22;62992;52.052;8.550;2023-11-21T13:10:31;7.20;99.90
74513;DHT22;62992;52.052;8.550;2023-11-21T13:13:15;7.30;99.90
74513;DHT22;62992;52.052;8.550;2023-11-21T13:16:02;7.30;99.90
74513;DHT22;62992;52.052;8.550;2023-11-21T13:18:50;7.30;99.90
74513;DHT22;62992;52.052;8.550;2023-11-21T13:21:34;7.20;99.90
74513;DHT22;62992;52.052;8.550;2023-11-21T13:24:18;7.30;99.90
74513;DHT22;62992;52.052;8.550;2023-11-21T13:27:03;7.40;99.90
74513;DHT22;62992;52.052;8.550;2023-11-21T13:29:47;7.30;99.90
74513;DHT22;62992;52.052;8.550;2023-11-21T13:32:31;7.30;99.90
74513;DHT22;62992;52.052;8.550;2023-11-21T13:35:15;7.30;99.90
74513;DHT22;62992;52.052;8.550;2023-11-21T13:38:04;7.30;99.90
74513;DHT22;62992;52.052;8.550;2023-11-21T13:40:50;7.30;99.90
74513;DHT22;62992;52.052;8.550;2023-11-21T13:43:37;7.30;99.90
74513;DHT22;62992;52.052;8.550;2023-11-21T13:46:21;7.30;99.90
74513;DHT22;62992;52.052;8.550;2023-11-21T13:49:07;7.30;99.90
74513;DHT22;62992;52.052;8.550;2023-11-21T13:51:53;7.30;99.90
74513;DHT22;62992;52.052;8.550;2023-11-21T13:54:38;7.30;99.90
74513;DHT22;62992;52.052;8.550;2023-11-21T13:57:23;7.30;99.90
74513;DHT22;62992;52.052;8.550;2023-11-21T14:00:07;7.30;99.90
74513;DHT22;62992;52.052;8.550;2023-11-21T14:02:54;7.30;99.90
74513;DHT22;62992;52.052;8.550;2023-11-21T14:05:44;7.30;99.90
74513;DHT22;62992;52.052;8.550;2023-11-21T14:08:30;7.20;99.90
74513;DHT22;62992;52.052;8.550;2023-11-21T14:11:14;7.20;99.90
74513;DHT22;62992;52.052;8.550;2023-11-21T14:14:01;7.20;99.90
74513;DHT22;62992;52.052;8.550;2023-11-21T14:16:45;7.20;99.90
74513;DHT22;62992;52.052;8.550;2023-11-21T14:19:30;7.10;99.90
74513;DHT22;62992;52.052;8.550;2023-11-21T14:22:16;7.10;99.90
74513;DHT22;62992;52.052;8.550;2023-11-21T14:25:00;7.00;99.90
74513;DHT22;62992;52.052;8.550;2023-11-21T14:27:48;7.10;99.90
74513;DHT22;62992;52.052;8.550;2023-11-21T14:30:32;7.00;99.90
74513;DHT22;62992;52.052;8.550;2023-11-21T14:33:19;7.00;99.90
74513;DHT22;62992;52.052;8.550;2023-11-21T14:36:03;7.00;99.90
74513;DHT22;62992;52.052;8.550;2023-11-21T14:38:47;7.00;99.90
74513;DHT22;62992;52.052;8.550;2023-11-21T14:41:32;6.90;99.90
74513;DHT22;62992;52.052;8.550;2023-11-21T14:44:19;6.90;99.90
74513;DHT22;62992;52.052;8.550;2023-11-21T14:47:04;6.90;99.90
74513;DHT22;62992;52.052;8.550;2023-11-21T14:49:56;6.90;99.90
74513;DHT22;62992;52.052;8.550;2023-11-21T14:52:43;6.90;99.90
74513;DHT22;62992;52.052;8.550;2023-11-21T14:55:39;6.90;99.90
74513;DHT22;62992;52.052;8.550;2023-11-21T14:58:36;6.90;99.90
74513;DHT22;62992;52.052;8.550;2023-11-21T15:01:23;6.90;99.90
74513;DHT22;62992;52.052;8.550;2023-11-21T15:04:26;6.80;99.90
74513;DHT22;62992;52.052;8.550;2023-11-21T15:07:23;6.80;99.90
74513;DHT22;62992;52.052;8.550;2023-11-21T15:10:10;6.80;99.90
74513;DHT22;62992;52.052;8.550;2023-11-21T15:12:58;6.80;99.90
74513;DHT22;62992;52.052;8.550;2023-11-21T15:15:42;6.80;99.90
74513;DHT22;62992;52.052;8.550;2023-11-21T15:18:26;6.80;99.90
74513;DHT22;62992;52.052;8.550;2023-11-21T15:21:11;6.70;99.90
74513;DHT22;62992;52.052;8.550;2023-11-21T15:23:55;6.80;99.90
74513;DHT22;62992;52.052;8.550;2023-11-21T15:26:40;6.70;99.90
74513;DHT22;62992;52.052;8.550;2023-11-21T15:29:24;6.70;99.90
74513;DHT22;62992;52.052;8.550;2023-11-21T15:32:09;6.70;99.90
74513;DHT22;62992;52.052;8.550;2023-11-21T15:34:54;6.70;99.90
74513;DHT22;62992;52.052;8.550;2023-11-21T15:37:38;6.70;99.90
74513;DHT22;62992;52.052;8.550;2023-11-21T15:40:22;6.70;99.90
74513;DHT22;62992;52.052;8.550;2023-11-21T15:43:06;6.60;99.90
74513;DHT22;62992;52.052;8.550;2023-11-21T15:45:51;6.60;99.90
74513;DHT22;62992;52.052;8.550;2023-11-21T15:48:35;6.60;99.90
74513;DHT22;62992;52.052;8.550;2023-11-21T15:51:22;6.60;99.90
74513;DHT22;62992;52.052;8.550;2023-11-21T15:54:06;6.60;99.90
74513;DHT22;62992;52.052;8.550;2023-11-21T15:56:51;6.60;99.90
74513;DHT22;62992;52.052;8.550;2023-11-21T15:59:36;6.60;99.90
74513;DHT22;62992;52.052;8.550;2023-11-21T16:02:20;6.60;99.90
74513;DHT22;62992;52.052;8.550;2023-11-21T16:05:04;6.60;99.90
74513;DHT22;62992;52.052;8.550;2023-11-21T16:07:49;6.60;99.90
74513;DHT22;62992;52.052;8.550;2023-11-21T16:10:34;6.60;99.90
74513;DHT22;62992;52.052;8.550;2023-11-21T16:13:20;6.50;99.90
74513;DHT22;62992;52.052;8.550;2023-11-21T16:16:04;6.50;99.90
74513;DHT22;62992;52.052;8.550;2023-11-21T16:18:49;6.50;99.90
74513;DHT22;62992;52.052;8.550;2023-11-21T16:21:33;6.50;99.90
74513;DHT22;62992;52.052;8.550;2023-11-21T16:24:17;6.50;99.90
74513;DHT22;62992;52.052;8.550;2023-11-21T16:27:01;6.50;99.90
74513;DHT22;62992;52.052;8.550;2023-11-21T16:29:48;6.50;99.90
74513;DHT22;62992;52.052;8.550;2023-11-21T16:32:33;6.50;99.90
74513;DHT22;62992;52.052;8.550;2023-11-21T16:35:19;6.50;99.90
74513;DHT22;62992;52.052;8.550;2023-11-21T16:38:04;6.50;99.90
74513;DHT22;62992;52.052;8.550;2023-11-21T16:40:48;6.50;99.90
74513;DHT22;62992;52.052;8.550;2023-11-21T16:43:32;6.50;99.90
74513;DHT22;62992;52.052;8.550;2023-11-21T16:46:16;6.50;99.90
74513;DHT22;62992;52.052;8.550;2023-11-21T16:49:00;6.50;99.90
74513;DHT22;62992;52.052;8.550;2023-11-21T16:51:47;6.50;99.90
74513;DHT22;62992;52.052;8.550;2023-11-21T16:54:32;6.50;99.90
74513;DHT22;62992;52.052;8.550;2023-11-21T16:57:17;6.50;99.90
74513;DHT22;62992;52.052;8.550;2023-11-21T17:00:01;6.50;99.90
74513;DHT22;62992;52.052;8.550;2023-11-21T17:02:45;6.50;99.90
74513;DHT22;62992;52.052;8.550;2023-11-21T17:05:29;6.50;99.90
74513;DHT22;62992;52.052;8.550;2023-11-21T17:08:15;6.50;99.90
74513;DHT22;62992;52.052;8.550;2023-11-21T17:10:59;6.40;99.90
74513;DHT22;62992;52.052;8.550;2023-11-21T17:13:44;6.40;99.90
74513;DHT22;62992;52.052;8.550;2023-11-21T17:16:28;6.40;99.90
74513;DHT22;62992;52.052;8.550;2023-11-21T17:19:12;6.40;99.90
74513;DHT22;62992;52.052;8.550;2023-11-21T17:21:56;6.40;99.90
74513;DHT22;62992;52.052;8.550;2023-11-21T17:24:41;6.30;99.90
74513;DHT22;62992;52.052;8.550;2023-11-21T17:27:27;6.30;99.90
74513;DHT22;62992;52.052;8.550;2023-11-21T17:30:11;6.30;99.90
74513;DHT22;62992;52.052;8.550;2023-11-21T17:32:55;6.20;99.90
74513;DHT22;62992;52.052;8.550;2023-11-21T17:35:39;6.30;99.90
74513;DHT22;62992;52.052;8.550;2023-11-21T17:38:25;6.30;99.90
74513;DHT22;62992;52.052;8.550;2023-11-21T17:41:10;6.20;99.90
74513;DHT22;62992;52.052;8.550;2023-11-21T17:43:56;6.20;99.90
74513;DHT22;62992;52.052;8.550;2023-11-21T17:46:40;6.20;99.90
74513;DHT22;62992;52.052;8.550;2023-11-21T17:49:24;6.20;99.90
74513;DHT22;62992;52.052;8.550;2023-11-21T17:52:08;6.20;99.90
74513;DHT22;62992;52.052;8.550;2023-11-21T17:54:52;6.10;99.90